Tiempo atmosférico en la estación meteorológica de La Pobla de Benifassà-Fredes, Castelló/Castellón (1174 m.)



Fecha
DESCASC
Temp. máxima en grados centígrados (hora)
DESCASC
Temp. mínima en grados centígrados (hora)
DESCASC
Temp. media en grados centígrados
DESCASC
Racha de viento máxima en m/sg (hora)
DESCASC
Velocidad máxima media en intervalos de 10 minutos(hora)
DESCASC
Precipitaciones diarias en mm
DESCASC
Precipitaciones de 00:00 a 06:00 en mm
DESCASC
Precipitaciones de 06:00 a 12:00 en mm
DESCASC
Precipitaciones de 12:00 a 18:00 en mm
DESCASC
Precipitaciones de 18:00 a 24:00 en mm
DESCASC
22-11-2020 11 (11:20) 2.8 (07:50) 6.9 6.39 (19:50) 4.17 (18:50) 0 0 0 0 0
21-11-2020 9.9 (14:10) 0.9 (05:00) 5.4 8.61 (02:30) 5.83 (00:30) 0 0 0 0 0
20-11-2020 8.2 (15:00) 1.8 (08:00) 5 22.22 (07:10) 12.78 (05:30) 0 0 0 0 0
19-11-2020 14.3 (15:00) 4.8 (00:00) 9.6 24.17 (20:30) 13.33 (19:40) 0 0 0 0 0
18-11-2020 16.1 (14:30) 7.8 (00:00) 12 5 (20:40) 3.06 (08:20) 0 0 0 0 0
17-11-2020 15.6 (13:50) 5.5 (00:00) 10.6 11.67 (07:40) 7.78 (06:00) 0 0 0 0 0
16-11-2020 13.1 (00:40) 6 (00:00) 9.6 17.78 (07:40) 9.17 (07:30) 0 0 0 0 0
15-11-2020 16.5 (14:00) 8 (00:00) 12.3 14.17 (23:50) 7.22 (23:59) 0 0 0 0 0
14-11-2020 12.3 (14:40) 6.1 (00:00) 9.2 3.61 (12:00) 2.22 (21:50) 0.4 0 0 0.2 0.2
13-11-2020 12.6 (11:30) 5.1 (00:00) 8.9 5.83 (11:40) 2.5 (13:30) 0 0 0 0 0
12-11-2020 12.2 (12:00) 5.9 (00:00) 9 5.28 (02:00) 3.33 (01:50) 0 0 0 0 0
11-11-2020 12.8 (14:40) 4.4 (00:00) 8.6 5 (02:00) 3.61 (02:00) 0 0 0 0 0
10-11-2020 12.8 (13:20) 5.4 (00:00) 9.1 10 (06:20) 6.11 (06:20) 0 0 0 0 0
09-11-2020 14.3 (13:10) 6.3 (00:00) 10.3 7.22 (23:50) 4.17 (23:10) 0 0 0 0 0
08-11-2020 12.6 (13:20) 5.3 (00:00) 9 6.67 (11:00) 4.17 (01:30) 0 0 0 0 0
07-11-2020 12.2 (07:10) 6.7 (00:00) 9.4 25 (08:00) 13.61 (08:00) 22.8 3.6 19 0.2 0
06-11-2020 11.6 (20:40) 10.1 (00:00) 10.9 15 (14:10) 8.33 (21:00) 14 8.4 3.8 0.6 1.2
05-11-2020 10.3 (22:40) 4.9 (00:00) 7.6 15.83 (19:50) 7.78 (20:00) 42 0.2 0 1.8 40
04-11-2020 6.7 (23:10) 2.5 (00:00) 4.6 10 (03:10) 6.11 (03:10) 34 12.6 8.2 10.8 2.4
03-11-2020 13.2 (10:30) 5.2 (00:00) 9.2 12.78 (19:10) 8.06 (18:50) 1 0 0 0 1
02-11-2020 20.6 (12:10) 11.1 (00:00) 15.9 4.44 (13:20) 2.5 (05:30) 0 0 0 0 0
01-11-2020 21.2 (14:00) 11 (00:00) 16.1 8.06 (13:10) 4.72 (02:40) 0 0 0 0 0
31-10-2020 21.1 (13:10) 10.7 (00:00) 15.9 8.61 (13:20) 3.89 (14:40) 0 0 0 0 0
30-10-2020 19.2 (12:20) 8.9 (00:00) 14.1 4.44 (13:00) 2.78 (04:00) 0 0 0 0 0
29-10-2020 15.8 (11:30) 7.4 (00:00) 11.6 8.06 (01:40) 5 (05:40) 0 0 0 0 0
28-10-2020 17.2 (14:10) 7.6 (00:00) 12.4 15.28 (02:30) 9.72 (01:20) 0 0 0 0 0
27-10-2020 11.9 (15:10) 3.8 (00:00) 7.8 19.17 (03:10) 12.22 (04:30) 0 0 0 0 0

Gráficas

Temp. máximas Temp. mínimas Temp. medias Precipitaciones Rachas de viento máximas Velocidades máximas media en intervalos de 10 minutos

Datos horarios

Fecha y hora oficial Temperatura (ºC) Velocidad del viento (km/h) Dirección del viento Racha (km/h) Dirección de racha Precipitación (mm) Presión (hPa) Tendencia (hPa) Humedad (%)
2020-11-25 23:00:00 5.9 6 Sudeste 23 Este 0 -- -- 97
2020-11-25 22:00:00 5.8 9 Sudeste 18 Este 0 -- -- 96
2020-11-25 21:00:00 5.6 5 Este 14 Este 0 -- -- 96
2020-11-25 20:00:00 4.7 3 Sudeste 11 Este 0 -- -- 96
2020-11-25 19:00:00 5.7 4 Este 12 Este 0 -- -- 95
2020-11-25 18:00:00 6 5 Este 18 Este 0 -- -- 94
2020-11-25 17:00:00 6.3 7 Este 20 Este 0 -- -- 94
2020-11-25 16:00:00 6.8 7 Este 21 Este 0 -- -- 91
2020-11-25 15:00:00 7.9 6 Sudeste 18 Este 0 -- -- 78
2020-11-25 14:00:00 8.6 8 Este 19 Este 0 -- -- 81
2020-11-25 13:00:00 8.5 9 Este 18 Este 0 -- -- 80
2020-11-25 12:00:00 7.9 3 Este 10 Este 0 -- -- 81
2020-11-25 11:00:00 7.6 5 Este 12 Este 0 -- -- 86
2020-11-25 10:00:00 6.7 3 Este 8 Sudeste 0 -- -- 90
2020-11-25 09:00:00 4.4 2 Nordeste 4 Este 0 -- -- 97
2020-11-25 08:00:00 3.3 2 Sudeste 4 Sudeste 0.2 -- -- 96
2020-11-25 07:00:00 2.7 3 Norte 4 Noroeste 0 -- -- 96
2020-11-25 06:00:00 2.6 2 Este 3 Este 0 -- -- 96
2020-11-25 05:00:00 2.5 0 Calma 3 Este 0 -- -- 95
2020-11-25 04:00:00 2.7 0 Calma 5 Sur 0 -- -- 95
2020-11-25 03:00:00 2.7 0 Calma 5 Sudeste 0 -- -- 95
2020-11-25 02:00:00 2.6 0 Calma 4 Sudeste 0 -- -- 94
2020-11-25 01:00:00 3 0 Calma 5 Sudeste 0 -- -- 94
2020-11-25 00:00:00 4 2 Sudeste 8 Este 0 -- -- 94
2020-11-24 23:00:00 4.8 3 Sudeste 9 Sudeste 0 -- -- 94
2020-11-24 22:00:00 5 4 Sudeste 10 Sudeste 0 -- -- 94
2020-11-24 21:00:00 4.9 3 Oeste 6 Sur 0 -- -- 94
2020-11-24 20:00:00 5.3 0 Calma 3 Este 0 -- -- 92
2020-11-24 19:00:00 6.1 0 Calma 5 Sudeste 0 -- -- 91
2020-11-24 18:00:00 6.3 0 Calma 10 Este 0 -- -- 90
2020-11-24 17:00:00 7 3 Este 10 Sudeste 0 -- -- 90
2020-11-24 16:00:00 7.5 3 Este 10 Este 0 -- -- 87
2020-11-24 15:00:00 8 4 Este 15 Este 0 -- -- 85
2020-11-24 14:00:00 8.8 6 Este 16 Este 0 -- -- 81
2020-11-24 13:00:00 9 5 Este 13 Este 0 -- -- 81
2020-11-24 12:00:00 9.4 4 Sudeste 10 Este 0 -- -- 78
2020-11-24 11:00:00 8 3 Este 8 Este 0 -- -- 81
2020-11-24 10:00:00 7.7 3 Este 8 Este 0 -- -- 77
2020-11-24 09:00:00 5.9 2 Nordeste 6 Este 0 -- -- 83
2020-11-24 08:00:00 4.3 3 Este 5 Este 0 -- -- 85
2020-11-24 07:00:00 4.7 0 Calma 4 Sudeste 0 -- -- 81
2020-11-24 06:00:00 5.6 3 Sudeste 6 Sudeste 0 -- -- 79
2020-11-24 05:00:00 4.8 4 Sur 6 Sur 0 -- -- 82
2020-11-24 04:00:00 5 0 Calma 2 Este 0 -- -- 84
2020-11-24 03:00:00 5 2 Sudeste 6 Sudoeste 0 -- -- 81
2020-11-24 02:00:00 4.9 4 Sur 5 Sudoeste 0 -- -- 80
2020-11-24 01:00:00 4.3 2 Sur 5 Sur 0 -- -- 90
2020-11-24 00:00:00 4.1 0 Calma 4 Sudeste 0 -- -- 92
2020-11-23 23:00:00 4.8 0 Calma 5 Sudeste 0 -- -- 89
2020-11-23 22:00:00 5.2 3 Sudeste 6 Oeste 0 -- -- 87
2020-11-23 21:00:00 3.1 6 Oeste 8 Oeste 0 -- -- 77
2020-11-23 20:00:00 3.9 6 Oeste 9 Oeste 0 -- -- 91
2020-11-23 19:00:00 5 6 Oeste 9 Sudoeste 0 -- -- 91
2020-11-23 18:00:00 7 0 Calma 7 Este 0 -- -- 87
2020-11-23 17:00:00 7.6 3 Este 10 Este 0 -- -- 87
2020-11-23 16:00:00 9.5 5 Sudeste 13 Este 0 -- -- 75
2020-11-23 15:00:00 9.6 6 Este 15 Este 0 -- -- 69
2020-11-23 14:00:00 10.4 6 Este 13 Este 0 -- -- 64
2020-11-23 13:00:00 11.2 3 Sudoeste 14 Oeste 0 -- -- 42
2020-11-23 12:00:00 10.1 5 Oeste 12 Oeste 0 -- -- 48
2020-11-23 11:00:00 8.6 4 Oeste 10 Oeste 0 -- -- 53
2020-11-23 10:00:00 6.4 7 Oeste 12 Oeste 0 -- -- 59
2020-11-23 09:00:00 3.4 4 Noroeste 11 Noroeste 0 -- -- 69
2020-11-23 08:00:00 2.2 11 Oeste 19 Oeste 0 -- -- 68
2020-11-23 07:00:00 1.9 12 Oeste 18 Oeste 0 -- -- 69
2020-11-23 06:00:00 1.9 5 Sudoeste 9 Oeste 0 -- -- 71
2020-11-23 05:00:00 2.1 3 Oeste 6 Oeste 0 -- -- 65
2020-11-23 04:00:00 3.2 2 Oeste 6 Oeste 0 -- -- 61
2020-11-23 03:00:00 3.5 5 Oeste 8 Oeste 0 -- -- 61
2020-11-23 02:00:00 3.7 5 Oeste 8 Oeste 0 -- -- 61
2020-11-23 01:00:00 4.1 0 Calma 2 Sudeste 0 -- -- 58
2020-11-23 00:00:00 4.5 0 Calma 10 Noroeste 0 -- -- 56
2020-11-22 23:00:00 4 5 Oeste 12 Oeste 0 -- -- 63
2020-11-22 22:00:00 5.6 6 Oeste 17 Oeste 0 -- -- 56
2020-11-22 21:00:00 6 12 Oeste 19 Oeste 0 -- -- 48
2020-11-22 20:00:00 6.6 13 Oeste 23 Oeste 0 -- -- 47
2020-11-22 19:00:00 6.1 14 Oeste 23 Oeste 0 -- -- 59
2020-11-22 18:00:00 5.5 4 Oeste 7 Oeste 0 -- -- 79
2020-11-22 17:00:00 9.3 0 Calma 9 Sudoeste 0 -- -- 75
2020-11-22 16:00:00 10.3 3 Sudeste 10 Este 0 -- -- 67
2020-11-22 15:00:00 10.6 5 Sudeste 12 Este 0 -- -- 64
2020-11-22 14:00:00 10.4 5 Este 14 Este 0 -- -- 64
2020-11-22 13:00:00 10.3 5 Este 13 Sudeste 0 -- -- 61
2020-11-22 12:00:00 10.7 5 Sudeste 11 Sudeste 0 -- -- 56
2020-11-22 11:00:00 10.5 3 Oeste 10 Oeste 0 -- -- 33
2020-11-22 10:00:00 8.5 0 Calma 10 Oeste 0 -- -- 30
2020-11-22 09:00:00 4.5 7 Oeste 13 Oeste 0 -- -- 33
2020-11-22 08:00:00 3 9 Oeste 12 Oeste 0 -- -- 31
2020-11-22 07:00:00 3.1 5 Sudoeste 6 Sudoeste 0 -- -- 29
2020-11-22 06:00:00 4.7 3 Sudeste 4 Sudeste 0 -- -- 26
2020-11-22 05:00:00 3.8 0 Calma 3 Sur 0 -- -- 26
2020-11-22 04:00:00 3.7 0 Calma 5 Sudeste 0 -- -- 31
2020-11-22 03:00:00 4.7 2 Este 6 Sudeste 0 -- -- 34
2020-11-22 02:00:00 5.2 3 Este 5 Este 0 -- -- 20
2020-11-22 01:00:00 4.2 0 Calma 8 Oeste 0 -- -- 22
2020-11-22 00:00:00 4 2 Nordeste 4 Nordeste 0 -- -- 24
2020-11-21 23:00:00 2.2 0 Calma 5 Sudeste 0 -- -- 67
2020-11-21 22:00:00 1.7 0 Calma 6 Sudeste 0 -- -- 75
2020-11-21 21:00:00 3.6 3 Sudeste 6 Este 0 -- -- 61
2020-11-21 20:00:00 1.8 2 Sudoeste 9 Oeste 0 -- -- 72
2020-11-21 19:00:00 1.8 2 Sur 5 Sudeste 0 -- -- 71
2020-11-21 18:00:00 3.7 0 Calma 8 Este 0 -- -- 63
2020-11-21 17:00:00 7 4 Este 10 Sudeste 0 -- -- 52
2020-11-21 16:00:00 9 4 Este 9 Este 0 -- -- 47
2020-11-21 15:00:00 9.3 5 Este 12 Sudeste 0 -- -- 45
2020-11-21 14:00:00 9.8 4 Sudeste 14 Este 0 -- -- 41
2020-11-21 13:00:00 9.6 8 Este 13 Este 0 -- -- 39
2020-11-21 12:00:00 8.6 5 Este 14 Este 0 -- -- 38
2020-11-21 11:00:00 7.8 3 Este 9 Sudeste 0 -- -- 38
2020-11-21 10:00:00 5.7 2 Oeste 12 Oeste 0 -- -- 44
2020-11-21 09:00:00 2.7 9 Oeste 18 Oeste 0 -- -- 45
2020-11-21 08:00:00 0.9 13 Oeste 20 Oeste 0 -- -- 47
2020-11-21 07:00:00 1.1 14 Oeste 23 Oeste 0 -- -- 47
2020-11-21 06:00:00 1.2 12 Oeste 20 Oeste 0 -- -- 47
2020-11-21 05:00:00 0.9 13 Oeste 25 Oeste 0 -- -- 47
2020-11-21 04:00:00 1.4 18 Oeste 30 Oeste 0 -- -- 46
2020-11-21 03:00:00 1.5 19 Oeste 31 Oeste 0 -- -- 46
2020-11-21 02:00:00 1.2 18 Oeste 28 Oeste 0 -- -- 49
2020-11-21 01:00:00 1.2 19 Oeste 31 Oeste 0 -- -- 53
2020-11-21 00:00:00 1.8 20 Oeste 35 Oeste 0 -- -- 54
2020-11-20 23:00:00 2.3 25 Oeste 47 Oeste 0 -- -- 57
2020-11-20 22:00:00 2.8 32 Oeste 53 Oeste 0 -- -- 57
2020-11-20 21:00:00 3.2 28 Oeste 54 Oeste 0 -- -- 60
2020-11-20 20:00:00 3.7 33 Oeste 54 Oeste 0 -- -- 63
2020-11-20 19:00:00 4.2 29 Oeste 52 Oeste 0 -- -- 68
2020-11-20 18:00:00 4.7 36 Oeste 59 Noroeste 0 -- -- 65
2020-11-20 17:00:00 5.7 30 Oeste 54 Oeste 0 -- -- 66
2020-11-20 16:00:00 7.2 26 Oeste 50 Oeste 0 -- -- 61
2020-11-20 15:00:00 8.2 11 Oeste 38 Noroeste 0 -- -- 60
2020-11-20 14:00:00 7.7 20 Noroeste 41 Noroeste 0 -- -- 62
2020-11-20 13:00:00 7.7 14 Oeste 44 Oeste 0 -- -- 63
2020-11-20 12:00:00 6.3 22 Noroeste 55 Noroeste 0 -- -- 69
2020-11-20 11:00:00 5.3 16 Noroeste 63 Oeste 0 -- -- 73
2020-11-20 10:00:00 3.4 35 Oeste 59 Noroeste 0 -- -- 78
2020-11-20 09:00:00 2.2 29 Oeste 77 Oeste 0 -- -- 83
2020-11-20 08:00:00 1.8 39 Oeste 80 Noroeste 0 -- -- 84
2020-11-20 07:00:00 2 46 Oeste 73 Oeste 0 -- -- 84
2020-11-20 06:00:00 2.4 42 Oeste 69 Oeste 0 -- -- 81
2020-11-20 05:00:00 2.4 39 Oeste 64 Noroeste 0 -- -- 82
2020-11-20 04:00:00 2.7 39 Oeste 68 Oeste 0 -- -- 86
2020-11-20 03:00:00 3.1 44 Oeste 67 Oeste 0 -- -- 86
2020-11-20 02:00:00 3.6 42 Oeste 65 Oeste 0 -- -- 86
2020-11-20 01:00:00 4.1 40 Oeste 66 Oeste 0 -- -- 85
2020-11-20 00:00:00 4.8 41 Oeste 76 Oeste 0 -- -- 85
2020-11-19 23:00:00 5.6 44 Oeste 76 Oeste 0 -- -- 84
2020-11-19 22:00:00 6.4 44 Oeste 78 Noroeste 0 -- -- 83
2020-11-19 21:00:00 7.5 35 Oeste 87 Oeste 0 -- -- 80
2020-11-19 20:00:00 8.2 45 Noroeste 84 Noroeste 0 -- -- 81
2020-11-19 19:00:00 9.2 47 Oeste 79 Oeste 0 -- -- 81
2020-11-19 18:00:00 10.4 38 Noroeste 66 Noroeste 0 -- -- 82
2020-11-19 17:00:00 11.6 28 Oeste 48 Noroeste 0 -- -- 79
2020-11-19 16:00:00 13 27 Oeste 50 Oeste 0 -- -- 73
2020-11-19 15:00:00 14.3 22 Noroeste 42 Noroeste 0 -- -- 70
2020-11-19 14:00:00 13.7 22 Oeste 39 Oeste 0 -- -- 69
2020-11-19 13:00:00 13.3 18 Oeste 32 Oeste 0 -- -- 71
2020-11-19 12:00:00 12.5 21 Oeste 35 Oeste 0 -- -- 72
2020-11-19 11:00:00 11.7 20 Oeste 37 Noroeste 0 -- -- 75
2020-11-19 10:00:00 10.1 26 Oeste 44 Oeste 0 -- -- 80
2020-11-19 09:00:00 9.1 22 Oeste 41 Oeste 0 -- -- 81
2020-11-19 08:00:00 8.7 25 Oeste 40 Oeste 0 -- -- 83
2020-11-19 07:00:00 8.8 28 Oeste 42 Oeste 0 -- -- 80
2020-11-19 06:00:00 8.7 22 Oeste 37 Oeste 0 -- -- 77
2020-11-19 05:00:00 8.8 15 Oeste 32 Noroeste 0 -- -- 75
2020-11-19 04:00:00 9.1 15 Noroeste 30 Noroeste 0 -- -- 74
2020-11-19 03:00:00 9.4 11 Noroeste 26 Noroeste 0 -- -- 72
2020-11-19 02:00:00 8.9 5 Noroeste 17 Noroeste 0 -- -- 76
2020-11-19 01:00:00 8.8 4 Noroeste 15 Noroeste 0 -- -- 76
2020-11-19 00:00:00 8.3 4 Oeste 8 Sudoeste 0 -- -- 74
2020-11-18 23:00:00 9.3 4 Oeste 12 Oeste 0 -- -- 72
2020-11-18 22:00:00 9.6 6 Oeste 12 Oeste 0 -- -- 71
2020-11-18 21:00:00 10.3 9 Oeste 18 Oeste 0 -- -- 69
2020-11-18 20:00:00 10.4 7 Oeste 14 Oeste 0 -- -- 69
2020-11-18 19:00:00 10.2 4 Oeste 13 Oeste 0 -- -- 70
2020-11-18 18:00:00 11 8 Oeste 12 Oeste 0 -- -- 69
2020-11-18 17:00:00 13.9 3 Oeste 10 Noroeste 0 -- -- 62
2020-11-18 16:00:00 14.7 4 Este 11 Sudeste 0 -- -- 75
2020-11-18 15:00:00 16 4 Sudeste 11 Este 0 -- -- 69
2020-11-18 14:00:00 15.6 4 Este 10 Este 0 -- -- 70
2020-11-18 13:00:00 14.6 5 Sudeste 11 Este 0 -- -- 72
2020-11-18 12:00:00 15.1 5 Este 9 Este 0 -- -- 68
2020-11-18 11:00:00 15.3 4 Este 8 Oeste 0 -- -- 59
2020-11-18 10:00:00 14.2 5 Oeste 11 Oeste 0 -- -- 57
2020-11-18 09:00:00 10.8 4 Oeste 13 Oeste 0 -- -- 65
2020-11-18 08:00:00 9.1 10 Oeste 13 Oeste 0 -- -- 64
2020-11-18 07:00:00 8.8 9 Oeste 12 Oeste 0 -- -- 64
2020-11-18 06:00:00 8.7 9 Oeste 13 Oeste 0 -- -- 63
2020-11-18 05:00:00 8.3 10 Oeste 13 Oeste 0 -- -- 63
2020-11-18 04:00:00 7.9 5 Sudoeste 9 Oeste 0 -- -- 64
2020-11-18 03:00:00 8.3 6 Oeste 9 Oeste 0 -- -- 54
2020-11-18 02:00:00 8.9 6 Oeste 11 Oeste 0 -- -- 50
2020-11-18 01:00:00 9.2 2 Sudoeste 5 Oeste 0 -- -- 46
2020-11-18 00:00:00 9.2 4 Sudoeste 9 Oeste 0 -- -- 50
2020-11-17 23:00:00 9.3 6 Sudoeste 8 Sudoeste 0 -- -- 62
2020-11-17 22:00:00 9.2 0 Calma 4 Sudoeste 0 -- -- 62
2020-11-17 21:00:00 9.3 0 Calma 5 Oeste 0 -- -- 60
2020-11-17 20:00:00 8.8 3 Oeste 10 Oeste 0 -- -- 60
2020-11-17 19:00:00 8.5 6 Oeste 10 Oeste 0 -- -- 54
2020-11-17 18:00:00 9.8 3 Sudoeste 10 Oeste 0 -- -- 56
2020-11-17 17:00:00 12.6 5 Oeste 14 Oeste 0 -- -- 44
2020-11-17 16:00:00 14.5 3 Sudeste 12 Sudoeste 0 -- -- 67
2020-11-17 15:00:00 14.2 4 Sudeste 13 Sudoeste 0 -- -- 68
2020-11-17 14:00:00 15.4 10 Sudoeste 17 Sudoeste 0 -- -- 23
2020-11-17 13:00:00 14.8 9 Sudoeste 14 Sudoeste 0 -- -- 31
2020-11-17 12:00:00 13.9 5 Oeste 13 Oeste 0 -- -- 34
2020-11-17 11:00:00 12.3 5 Oeste 17 Noroeste 0 -- -- 43
2020-11-17 10:00:00 10.3 6 Noroeste 21 Noroeste 0 -- -- 50
2020-11-17 09:00:00 8 15 Oeste 36 Noroeste 0 -- -- 61
2020-11-17 08:00:00 7 25 Oeste 42 Oeste 0 -- -- 59
2020-11-17 07:00:00 6.7 22 Oeste 37 Oeste 0 -- -- 59
2020-11-17 06:00:00 6.7 28 Oeste 40 Oeste 0 -- -- 76
2020-11-17 05:00:00 7 20 Oeste 35 Oeste 0 -- -- 88
2020-11-17 04:00:00 7.1 17 Oeste 31 Oeste 0 -- -- 89
2020-11-17 03:00:00 6.5 10 Oeste 22 Oeste 0 -- -- 92
2020-11-17 02:00:00 6.4 12 Oeste 24 Oeste 0 -- -- 96
2020-11-17 01:00:00 5.6 8 Oeste 15 Oeste 0 -- -- 96
2020-11-17 00:00:00 6 9 Oeste 24 Oeste 0 -- -- 95
2020-11-16 23:00:00 6.3 15 Oeste 32 Oeste 0 -- -- 95
2020-11-16 22:00:00 6.7 18 Oeste 28 Oeste 0 -- -- 95
2020-11-16 21:00:00 7.2 14 Oeste 22 Oeste 0 -- -- 92
2020-11-16 20:00:00 7.1 10 Oeste 20 Noroeste 0 -- -- 92
2020-11-16 19:00:00 7.5 9 Oeste 18 Oeste 0 -- -- 90
2020-11-16 18:00:00 8.6 7 Oeste 20 Oeste 0 -- -- 86
2020-11-16 17:00:00 9.7 13 Oeste 26 Oeste 0 -- -- 81
2020-11-16 16:00:00 11.1 17 Oeste 48 Oeste 0 -- -- 76
2020-11-16 15:00:00 11.1 29 Oeste 49 Oeste 0 -- -- 75
2020-11-16 14:00:00 10.7 15 Oeste 39 Oeste 0 -- -- 79
2020-11-16 13:00:00 9.9 18 Oeste 33 Oeste 0 -- -- 81
2020-11-16 12:00:00 9.7 12 Oeste 33 Oeste 0 -- -- 83
2020-11-16 11:00:00 9.2 14 Oeste 42 Oeste 0 -- -- 85
2020-11-16 10:00:00 9.3 20 Noroeste 42 Oeste 0 -- -- 85
2020-11-16 09:00:00 8.8 26 Oeste 54 Noroeste 0 -- -- 87
2020-11-16 08:00:00 9.5 29 Noroeste 64 Oeste 0 -- -- 92
2020-11-16 07:00:00 10.2 27 Noroeste 58 Oeste 0 -- -- 92
2020-11-16 06:00:00 11.3 27 Oeste 50 Noroeste 0 -- -- 87
2020-11-16 05:00:00 12.3 21 Oeste 51 Oeste 0 -- -- 80
2020-11-16 04:00:00 12.6 31 Oeste 57 Oeste 0 -- -- 76
2020-11-16 03:00:00 12.8 23 Oeste 41 Oeste 0 -- -- 73
2020-11-16 02:00:00 12.8 19 Oeste 47 Oeste 0 -- -- 72
2020-11-16 01:00:00 13.1 30 Oeste 53 Oeste 0 -- -- 70
2020-11-16 00:00:00 13 26 Oeste 51 Oeste 0 -- -- 72
2020-11-15 23:00:00 13.1 21 Oeste 40 Oeste 0 -- -- 72
2020-11-15 22:00:00 13.1 21 Oeste 44 Oeste 0 -- -- 72
2020-11-15 21:00:00 12.9 23 Oeste 38 Oeste 0 -- -- 75
2020-11-15 20:00:00 13 24 Oeste 41 Oeste 0 -- -- 74
2020-11-15 19:00:00 12.7 13 Oeste 29 Oeste 0 -- -- 77
2020-11-15 18:00:00 13.4 13 Oeste 27 Oeste 0 -- -- 72
2020-11-15 17:00:00 14.2 7 Oeste 23 Oeste 0 -- -- 70
2020-11-15 16:00:00 15.2 10 Oeste 32 Sudoeste 0 -- -- 66
2020-11-15 15:00:00 16.3 13 Oeste 27 Sudoeste 0 -- -- 62
2020-11-15 14:00:00 16.5 12 Oeste 33 Oeste 0 -- -- 60
2020-11-15 13:00:00 15.8 15 Oeste 30 Oeste 0 -- -- 63
2020-11-15 12:00:00 15 11 Oeste 28 Oeste 0 -- -- 66
2020-11-15 11:00:00 13.3 14 Oeste 32 Oeste 0 -- -- 71
2020-11-15 10:00:00 11.5 8 Oeste 19 Oeste 0 -- -- 78
2020-11-15 09:00:00 9 13 Oeste 28 Oeste 0 -- -- 86
2020-11-15 08:00:00 8.3 15 Oeste 27 Oeste 0 -- -- 89
2020-11-15 07:00:00 8.3 16 Oeste 32 Oeste 0 -- -- 89
2020-11-15 06:00:00 8 13 Oeste 21 Oeste 0 -- -- 91
2020-11-15 05:00:00 8.2 15 Oeste 24 Oeste 0 -- -- 91
2020-11-15 04:00:00 8.3 9 Oeste 17 Oeste 0 -- -- 93
2020-11-15 03:00:00 9.3 10 Oeste 20 Oeste 0 -- -- 90
2020-11-15 02:00:00 9.7 10 Oeste 21 Oeste 0 -- -- 91
2020-11-15 01:00:00 8.7 8 Oeste 12 Oeste 0 -- -- 95
2020-11-15 00:00:00 9.1 6 Oeste 10 Oeste 0 -- -- 95
2020-11-14 23:00:00 9 8 Oeste 10 Oeste 0 -- -- 94
2020-11-14 22:00:00 9.2 7 Oeste 11 Oeste 0 -- -- 94
2020-11-14 21:00:00 9.1 2 Oeste 5 Sudoeste 0 -- -- 94
2020-11-14 20:00:00 9.2 4 Sudoeste 7 Sudoeste 0.2 -- -- 93
2020-11-14 19:00:00 9.7 0 Calma 3 Sudoeste 0 -- -- 93
2020-11-14 18:00:00 10.4 0 Calma 2 Noroeste 0.2 -- -- 93
2020-11-14 17:00:00 10.9 0 Calma 4 Sudeste 0 -- -- 92
2020-11-14 16:00:00 10.9 0 Calma 8 Este 0 -- -- 92
2020-11-14 15:00:00 11.9 5 Este 12 Este 0 -- -- 87
2020-11-14 14:00:00 11.7 3 Este 8 Este 0 -- -- 86
2020-11-14 13:00:00 11.3 3 Este 11 Este 0 -- -- 88
2020-11-14 12:00:00 11.3 6 Este 13 Este 0 -- -- 86
2020-11-14 11:00:00 11.1 5 Este 12 Este 0 -- -- 86
2020-11-14 10:00:00 10.2 3 Este 7 Sudeste 0 -- -- 88
2020-11-14 09:00:00 8.1 0 Calma 6 Sur 0 -- -- 94
2020-11-14 08:00:00 6.2 2 Oeste 5 Sudeste 0 -- -- 96
2020-11-14 07:00:00 6.8 2 Sur 5 Sudeste 0 -- -- 97
2020-11-14 06:00:00 6.8 0 Calma 5 Sur 0 -- -- 95
2020-11-14 05:00:00 7.1 2 Sur 7 Sudeste 0 -- -- 94
2020-11-14 04:00:00 7.8 3 Sur 8 Sudeste 0 -- -- 95
2020-11-14 03:00:00 7.9 3 Sur 11 Sudeste 0 -- -- 94
2020-11-14 02:00:00 8.2 4 Sudeste 11 Sudeste 0 -- -- 95
2020-11-14 01:00:00 8.1 2 Sudeste 9 Sudeste 0 -- -- 94
2020-11-14 00:00:00 8.2 3 Sudeste 11 Sudeste 0 -- -- 95
2020-11-13 23:00:00 7.8 0 Calma 5 Sudeste 0 -- -- 94
2020-11-13 22:00:00 8.5 0 Calma 4 Sudeste 0 -- -- 93
2020-11-13 21:00:00 9 2 Este 11 Este 0 -- -- 95
2020-11-13 20:00:00 9.2 4 Este 11 Este 0 -- -- 95
2020-11-13 19:00:00 9.5 4 Sudeste 13 Este 0 -- -- 95
2020-11-13 18:00:00 9.7 4 Este 13 Este 0 -- -- 95
2020-11-13 17:00:00 10.2 5 Sudeste 13 Este 0 -- -- 92
2020-11-13 16:00:00 10.2 4 Este 13 Este 0 -- -- 92
2020-11-13 15:00:00 10.6 5 Este 12 Este 0 -- -- 88
2020-11-13 14:00:00 11.5 6 Este 18 Sudeste 0 -- -- 80
2020-11-13 13:00:00 12.5 7 Este 16 Sudeste 0 -- -- 69
2020-11-13 12:00:00 11.8 5 Este 21 Este 0 -- -- 69
2020-11-13 11:00:00 11.9 5 Sudeste 17 Sudoeste 0 -- -- 70
2020-11-13 10:00:00 10.1 3 Sudeste 17 Sudoeste 0 -- -- 75
2020-11-13 09:00:00 7.3 4 Sudoeste 12 Sur 0 -- -- 82
2020-11-13 08:00:00 5.8 4 Oeste 13 Sudoeste 0 -- -- 78
2020-11-13 07:00:00 6.7 7 Sur 17 Sur 0 -- -- 74
2020-11-13 06:00:00 5.3 2 Sudeste 13 Sudeste 0 -- -- 78
2020-11-13 05:00:00 5.3 3 Sudeste 13 Sudeste 0 -- -- 81
2020-11-13 04:00:00 5.5 3 Sudeste 10 Sudeste 0 -- -- 77
2020-11-13 03:00:00 5.6 2 Sudeste 12 Este 0 -- -- 86
2020-11-13 02:00:00 5.7 3 Sudeste 9 Sudeste 0 -- -- 89
2020-11-13 01:00:00 5.5 0 Calma 10 Sur 0 -- -- 88
2020-11-13 00:00:00 6 3 Sudeste 11 Sudeste 0 -- -- 89
2020-11-12 23:00:00 6.2 2 Sudeste 11 Sur 0 -- -- 87
2020-11-12 22:00:00 6.1 2 Sudeste 9 Este 0 -- -- 92
2020-11-12 21:00:00 6.5 0 Calma 6 Este 0 -- -- 89
2020-11-12 20:00:00 8.5 2 Sudeste 9 Sudeste 0 -- -- 91
2020-11-12 19:00:00 9 4 Sudeste 11 Sudeste 0 -- -- 92
2020-11-12 18:00:00 8.6 3 Este 8 Sudeste 0 -- -- 88
2020-11-12 17:00:00 9.5 3 Este 7 Este 0 -- -- 81
2020-11-12 16:00:00 10.7 3 Este 11 Este 0 -- -- 77
2020-11-12 15:00:00 11.2 6 Este 15 Este 0 -- -- 75
2020-11-12 14:00:00 12 6 Este 13 Este 0 -- -- 71
2020-11-12 13:00:00 12 7 Este 15 Este 0 -- -- 68
2020-11-12 12:00:00 12.2 6 Este 14 Este 0 -- -- 66
2020-11-12 11:00:00 10.5 3 Este 6 Nordeste 0 -- -- 68
2020-11-12 10:00:00 9.8 3 Oeste 10 Oeste 0 -- -- 72
2020-11-12 09:00:00 8.2 5 Oeste 13 Oeste 0 -- -- 75
2020-11-12 08:00:00 7 10 Oeste 16 Oeste 0 -- -- 77
2020-11-12 07:00:00 6.5 9 Oeste 14 Noroeste 0 -- -- 78
2020-11-12 06:00:00 6.4 12 Oeste 18 Oeste 0 -- -- 76
2020-11-12 05:00:00 6.7 12 Oeste 18 Noroeste 0 -- -- 74
2020-11-12 04:00:00 7 10 Oeste 18 Oeste 0 -- -- 77
2020-11-12 03:00:00 6.8 10 Oeste 19 Oeste 0 -- -- 81
2020-11-12 02:00:00 6.8 12 Oeste 19 Oeste 0 -- -- 83
2020-11-12 01:00:00 6.8 9 Oeste 13 Sudoeste 0 -- -- 89
2020-11-12 00:00:00 6.8 7 Oeste 13 Sudoeste 0 -- -- 93
2020-11-11 23:00:00 7 6 Sudoeste 10 Sudoeste 0 -- -- 96
2020-11-11 22:00:00 7 0 Calma 3 Sudeste 0 -- -- 95
2020-11-11 21:00:00 6.9 0 Calma 5 Sur 0 -- -- 95
2020-11-11 20:00:00 7.3 0 Calma 9 Sur 0 -- -- 93
2020-11-11 19:00:00 9.1 4 Sur 12 Sudeste 0 -- -- 92
2020-11-11 18:00:00 9.9 3 Sudeste 11 Este 0 -- -- 94
2020-11-11 17:00:00 10.2 5 Sudeste 11 Este 0 -- -- 92
2020-11-11 16:00:00 10.8 4 Este 15 Este 0 -- -- 90
2020-11-11 15:00:00 11.8 6 Este 17 Este 0 -- -- 83
2020-11-11 14:00:00 10.9 5 Este 15 Este 0 -- -- 83
2020-11-11 13:00:00 10.7 5 Este 13 Este 0 -- -- 83
2020-11-11 12:00:00 11.1 6 Este 16 Este 0 -- -- 79
2020-11-11 11:00:00 11.5 7 Este 13 Este 0 -- -- 74
2020-11-11 10:00:00 10.4 3 Sudeste 13 Sudeste 0 -- -- 77
2020-11-11 09:00:00 8.6 2 Este 10 Sur 0 -- -- 82
2020-11-11 08:00:00 5 6 Sur 9 Sur 0 -- -- 89
2020-11-11 07:00:00 4.5 6 Oeste 9 Oeste 0 -- -- 90
2020-11-11 06:00:00 4.8 5 Oeste 13 Oeste 0 -- -- 92
2020-11-11 05:00:00 5.9 10 Oeste 17 Oeste 0 -- -- 93
2020-11-11 04:00:00 5.7 11 Oeste 15 Oeste 0 -- -- 95
2020-11-11 03:00:00 5.5 8 Oeste 17 Oeste 0 -- -- 95
2020-11-11 02:00:00 5.5 13 Oeste 18 Oeste 0 -- -- 96
2020-11-11 01:00:00 4.7 4 Noroeste 7 Oeste 0 -- -- 95
2020-11-11 00:00:00 5.4 3 Oeste 6 Oeste 0 -- -- 93
2020-11-10 23:00:00 5.9 4 Oeste 10 Noroeste 0 -- -- 92
2020-11-10 22:00:00 6.8 7 Oeste 18 Oeste 0 -- -- 88
2020-11-10 21:00:00 7 12 Oeste 25 Oeste 0 -- -- 86
2020-11-10 20:00:00 7.1 13 Oeste 24 Oeste 0 -- -- 88
2020-11-10 19:00:00 7.5 14 Oeste 22 Oeste 0 -- -- 87
2020-11-10 18:00:00 8.5 11 Noroeste 23 Noroeste 0 -- -- 85
2020-11-10 17:00:00 10.2 13 Noroeste 23 Noroeste 0 -- -- 75
2020-11-10 16:00:00 12.1 13 Oeste 23 Oeste 0 -- -- 65
2020-11-10 15:00:00 12.6 10 Oeste 23 Noroeste 0 -- -- 67
2020-11-10 14:00:00 12.4 12 Noroeste 24 Noroeste 0 -- -- 67
2020-11-10 13:00:00 12.4 8 Oeste 24 Oeste 0 -- -- 69
2020-11-10 12:00:00 11.4 14 Noroeste 31 Noroeste 0 -- -- 71
2020-11-10 11:00:00 10.3 19 Oeste 34 Noroeste 0 -- -- 77
2020-11-10 10:00:00 9.6 15 Oeste 29 Oeste 0 -- -- 81
2020-11-10 09:00:00 7.7 18 Oeste 30 Oeste 0 -- -- 88
2020-11-10 08:00:00 6.4 18 Oeste 33 Oeste 0 -- -- 92
2020-11-10 07:00:00 6.5 21 Oeste 36 Oeste 0 -- -- 92
2020-11-10 06:00:00 6.5 19 Oeste 30 Oeste 0 -- -- 92
2020-11-10 05:00:00 6.6 18 Oeste 35 Noroeste 0 -- -- 90
2020-11-10 04:00:00 7.2 21 Oeste 34 Oeste 0 -- -- 87
2020-11-10 03:00:00 7.3 17 Oeste 26 Oeste 0 -- -- 90
2020-11-10 02:00:00 7.7 15 Oeste 24 Oeste 0 -- -- 88
2020-11-10 01:00:00 8.4 14 Oeste 25 Oeste 0 -- -- 84
2020-11-10 00:00:00 8.4 13 Noroeste 26 Noroeste 0 -- -- 84
2020-11-09 23:00:00 8.6 12 Noroeste 22 Noroeste 0 -- -- 82
2020-11-09 22:00:00 8.9 5 Oeste 15 Noroeste 0 -- -- 82
2020-11-09 21:00:00 9.1 5 Oeste 19 Noroeste 0 -- -- 80
2020-11-09 20:00:00 9 12 Noroeste 21 Oeste 0 -- -- 79
2020-11-09 19:00:00 9 8 Oeste 14 Noroeste 0 -- -- 83
2020-11-09 18:00:00 9.9 5 Noroeste 12 Oeste 0 -- -- 80
2020-11-09 17:00:00 11 5 Noroeste 13 Oeste 0 -- -- 81
2020-11-09 16:00:00 11.9 6 Este 14 Este 0 -- -- 83
2020-11-09 15:00:00 13.3 5 Sudeste 17 Oeste 0 -- -- 70
2020-11-09 14:00:00 14.2 4 Oeste 15 Oeste 0 -- -- 59
2020-11-09 13:00:00 14 6 Oeste 19 Oeste 0 -- -- 57
2020-11-09 12:00:00 12.9 6 Sudoeste 13 Sudoeste 0 -- -- 61
2020-11-09 11:00:00 11.1 8 Oeste 17 Oeste 0 -- -- 70
2020-11-09 10:00:00 10.1 8 Oeste 14 Oeste 0 -- -- 76
2020-11-09 09:00:00 8.4 8 Oeste 13 Oeste 0 -- -- 81
2020-11-09 08:00:00 6.5 8 Oeste 11 Oeste 0 -- -- 84
2020-11-09 07:00:00 6.4 9 Oeste 12 Oeste 0 -- -- 83
2020-11-09 06:00:00 6.7 8 Oeste 13 Oeste 0 -- -- 81
2020-11-09 05:00:00 6.8 10 Oeste 17 Oeste 0 -- -- 82
2020-11-09 04:00:00 7 10 Oeste 15 Oeste 0 -- -- 80
2020-11-09 03:00:00 7.1 10 Oeste 17 Oeste 0 -- -- 80
2020-11-09 02:00:00 6.8 12 Oeste 16 Oeste 0 -- -- 81
2020-11-09 01:00:00 6.9 9 Oeste 16 Oeste 0 -- -- 82
2020-11-09 00:00:00 6.5 11 Oeste 15 Oeste 0 -- -- 86
2020-11-08 23:00:00 6.6 4 Oeste 13 Oeste 0 -- -- 89
2020-11-08 22:00:00 6.5 5 Noroeste 7 Noroeste 0 -- -- 94
2020-11-08 21:00:00 7.7 0 Calma 15 Sur 0 -- -- 91
2020-11-08 20:00:00 8.8 11 Sur 16 Sur 0 -- -- 85
2020-11-08 19:00:00 7.2 4 Sudoeste 8 Sudoeste 0 -- -- 92
2020-11-08 18:00:00 7.9 0 Calma 6 Este 0 -- -- 90
2020-11-08 17:00:00 9.9 3 Sudeste 13 Sudeste 0 -- -- 85
2020-11-08 16:00:00 11.1 7 Este 18 Este 0 -- -- 80
2020-11-08 15:00:00 11.7 8 Este 21 Este 0 -- -- 79
2020-11-08 14:00:00 12.4 7 Este 22 Este 0 -- -- 78
2020-11-08 13:00:00 12.3 9 Este 22 Sudeste 0 -- -- 74
2020-11-08 12:00:00 12 11 Este 21 Este 0 -- -- 76
2020-11-08 11:00:00 11.3 9 Sudeste 24 Este 0 -- -- 81
2020-11-08 10:00:00 11.1 7 Este 17 Este 0 -- -- 78
2020-11-08 09:00:00 8.6 3 Sudeste 8 Sudeste 0 -- -- 85
2020-11-08 08:00:00 6.5 0 Calma 4 Sudeste 0 -- -- 86
2020-11-08 07:00:00 5.4 3 Oeste 6 Oeste 0 -- -- 89
2020-11-08 06:00:00 5.4 4 Sudoeste 5 Sudoeste 0 -- -- 89
2020-11-08 05:00:00 6.7 0 Calma 14 Oeste 0 -- -- 85
2020-11-08 04:00:00 6.4 10 Oeste 20 Oeste 0 -- -- 89
2020-11-08 03:00:00 7 14 Oeste 21 Noroeste 0 -- -- 88
2020-11-08 02:00:00 7 14 Oeste 23 Oeste 0 -- -- 89
2020-11-08 01:00:00 6.7 12 Oeste 20 Oeste 0 -- -- 92
2020-11-08 00:00:00 6.7 8 Oeste 18 Oeste 0 -- -- 93
2020-11-07 23:00:00 6.8 12 Oeste 21 Oeste 0 -- -- 94
2020-11-07 22:00:00 7.5 13 Oeste 22 Oeste 0 -- -- 95
2020-11-07 21:00:00 7.1 9 Oeste 19 Oeste 0 -- -- 97
2020-11-07 20:00:00 7.3 9 Oeste 21 Oeste 0 -- -- 98
2020-11-07 19:00:00 7.4 10 Oeste 20 Oeste 0 -- -- 98
2020-11-07 18:00:00 8.4 9 Oeste 17 Oeste 0 -- -- 98
2020-11-07 17:00:00 9.5 4 Sur 18 Sudeste 0 -- -- 98
2020-11-07 16:00:00 10.2 5 Sudeste 14 Este 0.2 -- -- 98
2020-11-07 15:00:00 10.5 4 Sudeste 20 Sudeste 0 -- -- 98
2020-11-07 14:00:00 10.4 4 Sudeste 22 Este 0 -- -- 99
2020-11-07 13:00:00 9.8 6 Este 17 Este 0 -- -- 99
2020-11-07 12:00:00 9.7 6 Este 20 Sudeste 0 -- -- 99
2020-11-07 11:00:00 8.7 6 Sur 14 Noroeste 0.2 -- -- 99
2020-11-07 10:00:00 7.7 8 Oeste 30 Oeste 0.8 -- -- 98
2020-11-07 09:00:00 7.8 17 Oeste 73 Este 11.6 -- -- 98
2020-11-07 08:00:00 11.6 49 Este 90 Este 5 -- -- 98
2020-11-07 07:00:00 12 36 Este 77 Este 1.4 -- -- 98
2020-11-07 06:00:00 11.8 30 Este 57 Este 2 -- -- 98
2020-11-07 05:00:00 11.6 30 Este 62 Este 1.2 -- -- 98
2020-11-07 04:00:00 11.5 26 Este 60 Este 0.2 -- -- 98
2020-11-07 03:00:00 11.3 25 Este 58 Este 0.2 -- -- 98
2020-11-07 02:00:00 11.3 28 Este 57 Este 0 -- -- 98
2020-11-07 01:00:00 11.2 27 Este 58 Este 0 -- -- 98
2020-11-07 00:00:00 11.2 25 Este 49 Este 0.2 -- -- 98
2020-11-06 23:00:00 11.3 26 Este 51 Este 0 -- -- 98
2020-11-06 22:00:00 11.5 23 Este 50 Este 0 -- -- 98
2020-11-06 21:00:00 11.5 30 Este 53 Este 0.2 -- -- 98
2020-11-06 20:00:00 11.2 28 Este 54 Este 0.2 -- -- 98
2020-11-06 19:00:00 11.2 24 Este 52 Este 0.6 -- -- 98
2020-11-06 18:00:00 11.1 26 Este 45 Este 0 -- -- 98
2020-11-06 17:00:00 11.2 19 Este 43 Este 0 -- -- 98
2020-11-06 16:00:00 11.2 23 Este 42 Este 0 -- -- 98
2020-11-06 15:00:00 11.3 24 Este 54 Este 0.2 -- -- 98
2020-11-06 14:00:00 11.2 27 Este 53 Este 0.2 -- -- 98
2020-11-06 13:00:00 11.1 24 Este 52 Este 0.2 -- -- 98
2020-11-06 12:00:00 11 23 Este 44 Este 0.2 -- -- 98
2020-11-06 11:00:00 10.9 23 Este 44 Este 1 -- -- 98
2020-11-06 10:00:00 10.6 22 Este 46 Nordeste 0.4 -- -- 98
2020-11-06 09:00:00 10.5 25 Este 47 Este 0.4 -- -- 98
2020-11-06 08:00:00 10.6 23 Este 46 Este 0.8 -- -- 98
2020-11-06 07:00:00 10.8 19 Este 42 Este 1 -- -- 98
2020-11-06 06:00:00 11 19 Este 39 Este 1.6 -- -- 98
2020-11-06 05:00:00 11 16 Este 39 Este 1.4 -- -- 98
2020-11-06 04:00:00 10.8 16 Este 36 Este 0.4 -- -- 98
2020-11-06 03:00:00 10.4 20 Este 39 Este 3.4 -- -- 98
2020-11-06 02:00:00 10.4 12 Este 35 Este 0 -- -- 98
2020-11-06 01:00:00 10.2 12 Este 46 Este 1.6 -- -- 98
2020-11-06 00:00:00 10.2 24 Este 51 Este 12 -- -- 98
2020-11-05 23:00:00 10.2 21 Este 54 Este 4 -- -- 98
2020-11-05 22:00:00 10.2 18 Este 50 Este 12 -- -- 98
2020-11-05 21:00:00 10.1 25 Este 53 Este -- -- -- 98
2020-11-05 20:00:00 10 28 Este 57 Este 3.2 -- -- 98
2020-11-05 19:00:00 9.7 24 Este 51 Este 1 -- -- 98
2020-11-05 18:00:00 9.2 22 Este 47 Este 0.4 -- -- 98
2020-11-05 17:00:00 8.9 22 Este 48 Este 0.4 -- -- 98
2020-11-05 16:00:00 8.8 21 Este 46 Este 0.4 -- -- 98
2020-11-05 15:00:00 8.6 21 Este 42 Este 0.4 -- -- 98
2020-11-05 14:00:00 8.5 23 Este 42 Este 0 -- -- 98
2020-11-05 13:00:00 8.2 19 Este 35 Este 0.2 -- -- 98
2020-11-05 12:00:00 7.8 14 Este 27 Este 0 -- -- 98
2020-11-05 11:00:00 7.4 15 Este 31 Este 0 -- -- 98
2020-11-05 10:00:00 6.7 13 Este 26 Este 0 -- -- 98
2020-11-05 09:00:00 6.1 12 Este 23 Norte 0 -- -- 98
2020-11-05 08:00:00 5 6 Este 22 Nordeste 0 -- -- 98
2020-11-05 07:00:00 4.9 10 Nordeste 17 Nordeste 0 -- -- 97
2020-11-05 06:00:00 5 8 Este 23 Nordeste 0 -- -- 97
2020-11-05 05:00:00 5.3 7 Este 30 Este 0.2 -- -- 98
2020-11-05 04:00:00 5.7 14 Este 34 Este 0 -- -- 97
2020-11-05 03:00:00 5.6 17 Este 40 Este 0 -- -- 98
2020-11-05 02:00:00 5.5 19 Este 33 Este 0 -- -- 97
2020-11-05 01:00:00 6.2 15 Este 36 Este 0 -- -- 97
2020-11-05 00:00:00 6.4 15 Este 32 Este 1 -- -- 97
2020-11-04 23:00:00 6.6 9 Este 26 Este 0.8 -- -- 97
2020-11-04 22:00:00 6.2 8 Este 24 Nordeste 0 -- -- 97
2020-11-04 21:00:00 6.1 10 Este 25 Este 0.2 -- -- 97
2020-11-04 20:00:00 5.6 10 Nordeste 21 Nordeste 0 -- -- 97
2020-11-04 19:00:00 5.2 9 Nordeste 21 Nordeste 0.4 -- -- 97
2020-11-04 18:00:00 5 10 Nordeste 21 Nordeste 0.6 -- -- 97
2020-11-04 17:00:00 4.7 6 Nordeste 16 Nordeste 1.2 -- -- 97
2020-11-04 16:00:00 3.6 8 Oeste 18 Oeste 3.6 -- -- 96
2020-11-04 15:00:00 4.2 6 Noroeste 17 Oeste 1.2 -- -- 96
2020-11-04 14:00:00 3.8 10 Oeste 18 Oeste 2.2 -- -- 96
2020-11-04 13:00:00 4.8 8 Oeste 17 Oeste 2 -- -- 95
2020-11-04 12:00:00 5.4 4 Norte 12 Norte 0.8 -- -- 96
2020-11-04 11:00:00 4.7 5 Noroeste 15 Noroeste 1.2 -- -- 98
2020-11-04 10:00:00 2.9 11 Oeste 27 Oeste 2.6 -- -- 97
2020-11-04 09:00:00 2.6 16 Oeste 24 Oeste 3.2 -- -- 97
2020-11-04 08:00:00 2.7 15 Oeste 26 Oeste 0.4 -- -- 96
2020-11-04 07:00:00 3 8 Oeste 18 Oeste 0 -- -- 97
2020-11-04 06:00:00 2.8 12 Oeste 24 Oeste 2.6 -- -- 97
2020-11-04 05:00:00 2.8 16 Oeste 31 Oeste 3.6 -- -- 96
2020-11-04 04:00:00 3.2 19 Oeste 36 Oeste 4.8 -- -- 96
2020-11-04 03:00:00 3.4 21 Oeste 34 Oeste 0.4 -- -- 96
2020-11-04 02:00:00 4.1 17 Oeste 32 Oeste 0.4 -- -- 96
2020-11-04 01:00:00 4.6 20 Oeste 34 Oeste 0.8 -- -- 96
2020-11-04 00:00:00 5.3 21 Oeste 33 Noroeste 0 -- -- 96
2020-11-03 23:00:00 5.2 21 Oeste 40 Oeste 0.8 -- -- 95
2020-11-03 22:00:00 5.5 24 Oeste 44 Oeste 0.2 -- -- 95
2020-11-03 21:00:00 5.6 24 Oeste 44 Oeste 0 -- -- 95
2020-11-03 20:00:00 5.6 26 Oeste 46 Oeste 0 -- -- 95
2020-11-03 19:00:00 5.7 28 Oeste 43 Oeste 0 -- -- 94
2020-11-03 18:00:00 6.7 25 Oeste 40 Oeste 0 -- -- 95
2020-11-03 17:00:00 7.1 26 Oeste 41 Oeste 0 -- -- 94
2020-11-03 16:00:00 7.9 21 Oeste 41 Oeste 0 -- -- 91
2020-11-03 15:00:00 8.9 23 Oeste 41 Noroeste 0 -- -- 89
2020-11-03 14:00:00 9.9 20 Oeste 39 Oeste 0 -- -- 86
2020-11-03 13:00:00 10.7 18 Oeste 37 Noroeste 0 -- -- 85
2020-11-03 12:00:00 10.7 16 Noroeste 28 Oeste 0 -- -- 87
2020-11-03 11:00:00 12.9 13 Noroeste 22 Oeste 0 -- -- 78
2020-11-03 10:00:00 12 13 Oeste 22 Oeste 0 -- -- 84
2020-11-03 09:00:00 11.2 12 Oeste 26 Oeste 0 -- -- 85
2020-11-03 08:00:00 9.8 16 Oeste 25 Oeste 0 -- -- 92
2020-11-03 07:00:00 9.6 12 Oeste 19 Oeste 0 -- -- 89
2020-11-03 06:00:00 9.8 10 Oeste 16 Oeste 0 -- -- 86
2020-11-03 05:00:00 10 9 Oeste 12 Oeste 0 -- -- 82
2020-11-03 04:00:00 10.6 2 Nordeste 5 Oeste 0 -- -- 67
2020-11-03 03:00:00 10.1 0 Calma 9 Oeste 0 -- -- 74
2020-11-03 02:00:00 10.7 3 Oeste 13 Oeste 0 -- -- 74
2020-11-03 01:00:00 11.3 9 Oeste 14 Oeste 0 -- -- 67
2020-11-03 00:00:00 12.4 3 Noroeste 9 Norte 0 -- -- 62
2020-11-02 23:00:00 12.8 5 Norte 10 Norte 0 -- -- 64
2020-11-02 22:00:00 12.6 5 Noroeste 8 Noroeste 0 -- -- 59
2020-11-02 21:00:00 12.7 0 Calma 3 Noroeste 0 -- -- 58
2020-11-02 20:00:00 12.5 0 Calma 2 Sur 0 -- -- 56
2020-11-02 19:00:00 13.4 0 Calma 5 Oeste 0 -- -- 66
2020-11-02 18:00:00 14.3 0 Calma 4 Sudeste 0 -- -- 65
2020-11-02 17:00:00 16.9 3 Este 10 Este 0 -- -- 59
2020-11-02 16:00:00 18 6 Este 13 Sudeste 0 -- -- 54
2020-11-02 15:00:00 19.4 7 Este 14 Este 0 -- -- 49
2020-11-02 14:00:00 19.5 6 Este 16 Este 0 -- -- 43
2020-11-02 13:00:00 20.2 6 Este 11 Este 0 -- -- 40
2020-11-02 12:00:00 20.3 4 Nordeste 10 Oeste 0 -- -- 39
2020-11-02 11:00:00 19.8 6 Oeste 13 Oeste 0 -- -- 34
2020-11-02 10:00:00 18.4 4 Sudoeste 10 Noroeste 0 -- -- 40
2020-11-02 09:00:00 15 8 Oeste 11 Oeste 0 -- -- 50
2020-11-02 08:00:00 12.1 8 Oeste 11 Oeste 0 -- -- 56
2020-11-02 07:00:00 11.7 8 Oeste 12 Oeste 0 -- -- 56
2020-11-02 06:00:00 11.5 8 Oeste 13 Oeste 0 -- -- 57
2020-11-02 05:00:00 11.2 3 Oeste 7 Sur 0 -- -- 57
2020-11-02 04:00:00 12.3 4 Sur 9 Sur 0 -- -- 54
2020-11-02 03:00:00 13.9 7 Sur 10 Sur 0 -- -- 47
2020-11-02 02:00:00 11.8 5 Sudoeste 12 Sur 0 -- -- 52
2020-11-02 01:00:00 12.7 6 Sur 9 Sur 0 -- -- 51
2020-11-02 00:00:00 12.5 2 Este 3 Este 0 -- -- 48
2020-11-01 23:00:00 12.1 2 Este 4 Este 0 -- -- 62
2020-11-01 22:00:00 12.9 2 Este 4 Este 0 -- -- 63
2020-11-01 21:00:00 12.8 0 Calma 2 Sudeste 0 -- -- 62
2020-11-01 20:00:00 12.5 0 Calma 6 Oeste 0 -- -- 64
2020-11-01 19:00:00 12.7 5 Oeste 7 Oeste 0 -- -- 69
2020-11-01 18:00:00 14.7 3 Sur 4 Sur 0 -- -- 63
2020-11-01 17:00:00 17.2 3 Este 12 Sudeste 0 -- -- 56
2020-11-01 16:00:00 18.8 5 Este 16 Este 0 -- -- 51
2020-11-01 15:00:00 20.3 6 Este 19 Sudoeste 0 -- -- 47
2020-11-01 14:00:00 21.2 6 Oeste 29 Oeste 0 -- -- 31
2020-11-01 13:00:00 20.6 10 Oeste 24 Oeste 0 -- -- 36
2020-11-01 12:00:00 19.2 11 Oeste 24 Oeste 0 -- -- 40
2020-11-01 11:00:00 18.2 11 Oeste 23 Noroeste 0 -- -- 43
2020-11-01 10:00:00 16.6 11 Oeste 21 Oeste 0 -- -- 47
2020-11-01 09:00:00 14.2 13 Oeste 20 Oeste 0 -- -- 55
2020-11-01 08:00:00 12 13 Oeste 20 Oeste 0 -- -- 60
2020-11-01 07:00:00 11 12 Oeste 19 Oeste 0 -- -- 66
2020-11-01 06:00:00 11.7 14 Oeste 23 Oeste 0 -- -- 66
2020-11-01 05:00:00 12 13 Oeste 22 Noroeste 0 -- -- 65
2020-11-01 04:00:00 12.7 13 Oeste 24 Oeste 0 -- -- 63
2020-11-01 03:00:00 12.9 15 Oeste 24 Oeste 0 -- -- 57
2020-11-01 02:00:00 12.6 16 Oeste 22 Oeste 0 -- -- 55
2020-11-01 01:00:00 12.4 13 Oeste 19 Oeste 0 -- -- 54
2020-11-01 00:00:00 12.3 13 Oeste 21 Oeste 0 -- -- 54
2020-10-31 23:00:00 12.1 12 Oeste 16 Oeste 0 -- -- 53
2020-10-31 22:00:00 11.3 9 Oeste 14 Noroeste 0 -- -- 55
2020-10-31 21:00:00 12.3 10 Oeste 19 Oeste 0 -- -- 54
2020-10-31 20:00:00 11.9 7 Oeste 9 Oeste 0 -- -- 51
2020-10-31 19:00:00 12.5 6 Oeste 9 Oeste 0 -- -- 50
2020-10-31 18:00:00 14.1 5 Oeste 11 Noroeste 0 -- -- 43
2020-10-31 17:00:00 17.6 6 Noroeste 24 Noroeste 0 -- -- 36
2020-10-31 16:00:00 19.6 11 Noroeste 24 Noroeste 0 -- -- 32
2020-10-31 15:00:00 20 11 Noroeste 27 Noroeste 0 -- -- 31
2020-10-31 14:00:00 20.8 12 Oeste 31 Noroeste 0 -- -- 30
2020-10-31 13:00:00 20.8 9 Noroeste 20 Noroeste 0 -- -- 29
2020-10-31 12:00:00 20.1 6 Oeste 22 Oeste 0 -- -- 29
2020-10-31 11:00:00 19.2 11 Oeste 19 Oeste 0 -- -- 30
2020-10-31 10:00:00 16.8 6 Oeste 17 Oeste 0 -- -- 30
2020-10-31 09:00:00 14.4 9 Oeste 16 Oeste 0 -- -- 34
2020-10-31 08:00:00 11.9 9 Oeste 11 Oeste 0 -- -- 33
2020-10-31 07:00:00 11.3 0 Calma 9 Oeste 0 -- -- 28
2020-10-31 06:00:00 11.6 2 Noroeste 5 Nordeste 0 -- -- 30
2020-10-31 05:00:00 10.9 4 Oeste 11 Oeste 0 -- -- 31
2020-10-31 04:00:00 11.2 7 Oeste 9 Oeste 0 -- -- 47
2020-10-31 03:00:00 14 5 Nordeste 9 Nordeste 0 -- -- 47
2020-10-31 02:00:00 11.9 3 Norte 6 Norte 0 -- -- 69
2020-10-31 01:00:00 11.2 3 Oeste 8 Oeste 0 -- -- 74
2020-10-31 00:00:00 11.3 4 Noroeste 11 Oeste 0 -- -- 72
2020-10-30 23:00:00 11.6 8 Oeste 11 Oeste 0 -- -- 74
2020-10-30 22:00:00 11.3 5 Oeste 9 Oeste 0 -- -- 75
2020-10-30 21:00:00 11.5 0 Calma 5 Oeste 0 -- -- 77
2020-10-30 20:00:00 11.4 0 Calma 3 Noroeste 0 -- -- 78
2020-10-30 19:00:00 13.1 3 Este 4 Este 0 -- -- 74
2020-10-30 18:00:00 13.6 2 Sudeste 4 Sudeste 0 -- -- 72
2020-10-30 17:00:00 16.5 3 Sudeste 9 Este 0 -- -- 61
2020-10-30 16:00:00 18 5 Sudeste 14 Sudeste 0 -- -- 54
2020-10-30 15:00:00 18.7 6 Este 14 Este 0 -- -- 53
2020-10-30 14:00:00 18.8 6 Este 14 Este 0 -- -- 52
2020-10-30 13:00:00 18.4 6 Este 16 Este 0 -- -- 54
2020-10-30 12:00:00 18.8 7 Este 15 Este 0 -- -- 49
2020-10-30 11:00:00 18.2 7 Este 13 Este 0 -- -- 46
2020-10-30 10:00:00 17.3 4 Este 11 Sudeste 0 -- -- 48
2020-10-30 09:00:00 13.9 0 Calma 5 Este 0 -- -- 57
2020-10-30 08:00:00 9.7 4 Oeste 11 Oeste 0 -- -- 67
2020-10-30 07:00:00 9.7 8 Oeste 11 Sudoeste 0 -- -- 68
2020-10-30 06:00:00 9.3 2 Noroeste 8 Oeste 0 -- -- 69
2020-10-30 05:00:00 10.3 3 Sudoeste 9 Oeste 0 -- -- 67
2020-10-30 04:00:00 9.7 10 Oeste 12 Oeste 0 -- -- 74
2020-10-30 03:00:00 9.6 4 Oeste 5 Oeste 0 -- -- 74
2020-10-30 02:00:00 10.3 0 Calma 6 Sudoeste 0 -- -- 73
2020-10-30 01:00:00 9.5 5 Sudoeste 6 Oeste 0 -- -- 83
2020-10-30 00:00:00 9.3 4 Oeste 6 Oeste 0 -- -- 88
2020-10-29 23:00:00 10 0 Calma -- -- 0 -- -- 86
2020-10-29 22:00:00 10.1 0 Calma 5 Sudeste 0 -- -- 85
2020-10-29 21:00:00 9.4 4 Sur 5 Sur 0 -- -- 88
2020-10-29 20:00:00 9.4 3 Oeste 6 Sudoeste 0 -- -- 90
2020-10-29 19:00:00 10.3 2 Sudeste 6 Sudoeste 0 -- -- 88
2020-10-29 18:00:00 11.7 3 Sur 5 Este 0 -- -- 81
2020-10-29 17:00:00 13.6 3 Este 12 Este 0 -- -- 76
2020-10-29 16:00:00 15.2 5 Sudeste 13 Este 0 -- -- 71
2020-10-29 15:00:00 15.5 5 Este 16 Sudeste 0 -- -- 69
2020-10-29 14:00:00 15.6 7 Este 18 Este 0 -- -- 66
2020-10-29 13:00:00 15.3 8 Este 23 Este 0 -- -- 65
2020-10-29 12:00:00 15.4 9 Este 22 Este 0 -- -- 62
2020-10-29 11:00:00 14.7 6 Sudeste 20 Sudeste 0 -- -- 62
2020-10-29 10:00:00 11.7 5 Oeste 16 Oeste 0 -- -- 78
2020-10-29 09:00:00 9.4 12 Oeste 20 Oeste 0 -- -- 87
2020-10-29 08:00:00 7.7 13 Oeste 23 Oeste 0 -- -- 91
2020-10-29 07:00:00 7.6 15 Oeste 23 Oeste 0 -- -- 92
2020-10-29 06:00:00 7.8 15 Oeste 24 Oeste 0 -- -- 91
2020-10-29 05:00:00 7.9 14 Oeste 27 Oeste 0 -- -- 91
2020-10-29 04:00:00 8.5 17 Oeste 28 Oeste 0 -- -- 90
2020-10-29 03:00:00 8.7 11 Oeste 24 Oeste 0 -- -- 88
2020-10-29 02:00:00 9.5 13 Oeste 29 Oeste 0 -- -- 85
2020-10-29 01:00:00 9 9 Oeste 18 Oeste 0 -- -- 86
2020-10-29 00:00:00 9.5 5 Oeste 17 Norte 0 -- -- 81
2020-10-28 23:00:00 10.6 8 Noroeste 26 Noroeste 0 -- -- 78
2020-10-28 22:00:00 10.8 15 Noroeste 32 Oeste 0 -- -- 76
2020-10-28 21:00:00 10.2 16 Oeste 31 Oeste 0 -- -- 79
2020-10-28 20:00:00 10.3 12 Oeste 28 Noroeste 0 -- -- 77
2020-10-28 19:00:00 10.8 15 Oeste 25 Oeste 0 -- -- 75
2020-10-28 18:00:00 12.1 10 Noroeste 26 Noroeste 0 -- -- 71
2020-10-28 17:00:00 14.2 9 Noroeste 25 Noroeste 0 -- -- 63
2020-10-28 16:00:00 14.7 10 Noroeste 23 Noroeste 0 -- -- 64
2020-10-28 15:00:00 15.7 9 Noroeste 21 Noroeste 0 -- -- 61
2020-10-28 14:00:00 16.5 8 Noroeste 23 Noroeste 0 -- -- 58
2020-10-28 13:00:00 16.1 11 Noroeste 23 Noroeste 0 -- -- 59
2020-10-28 12:00:00 15.7 12 Oeste 26 Oeste 0 -- -- 59
2020-10-28 11:00:00 14.8 10 Oeste 21 Oeste 0 -- -- 62
2020-10-28 10:00:00 13.5 12 Oeste 23 Oeste 0 -- -- 65
2020-10-28 09:00:00 11.7 14 Oeste 33 Noroeste 0 -- -- 72
2020-10-28 08:00:00 8.5 22 Oeste 38 Oeste 0 -- -- 81
2020-10-28 07:00:00 8 22 Oeste 40 Oeste 0 -- -- 82
2020-10-28 06:00:00 7.9 21 Oeste 39 Oeste 0 -- -- 81
2020-10-28 05:00:00 8.1 22 Oeste 39 Oeste 0 -- -- 79
2020-10-28 04:00:00 8 27 Oeste 47 Oeste 0 -- -- 77
2020-10-28 03:00:00 8.5 31 Oeste 55 Noroeste 0 -- -- 74
2020-10-28 02:00:00 8.3 30 Oeste 51 Oeste 0 -- -- 72
2020-10-28 01:00:00 8 31 Oeste 53 Noroeste 0 -- -- 70
2020-10-28 00:00:00 7.6 25 Oeste 52 Noroeste 0 -- -- 72
2020-10-27 23:00:00 8.1 31 Oeste 50 Oeste 0 -- -- 69
2020-10-27 22:00:00 7.7 19 Noroeste 39 Oeste 0 -- -- 71
2020-10-27 21:00:00 7.9 15 Noroeste 30 Noroeste 0 -- -- 68
2020-10-27 20:00:00 8.1 9 Oeste 22 Noroeste 0 -- -- 67
2020-10-27 19:00:00 8.3 9 Noroeste 28 Oeste 0 -- -- 64
2020-10-27 18:00:00 9.2 9 Oeste 23 Oeste 0 -- -- 58
2020-10-27 17:00:00 10.6 13 Oeste 32 Oeste 0 -- -- 52
2020-10-27 16:00:00 11.8 13 Oeste 28 Oeste 0 -- -- 47
2020-10-27 15:00:00 11.7 11 Oeste 30 Sudoeste 0 -- -- 48
2020-10-27 14:00:00 11.3 16 Oeste 28 Oeste 0 -- -- 49
2020-10-27 13:00:00 10.5 15 Oeste 36 Oeste 0 -- -- 52
2020-10-27 12:00:00 6.9 23 Oeste 50 Oeste 0 -- -- 63
2020-10-27 11:00:00 7.7 29 Oeste 48 Oeste 0 -- -- 62
2020-10-27 10:00:00 5.9 27 Oeste 54 Oeste 0 -- -- 70
2020-10-27 09:00:00 4.6 24 Oeste 44 Oeste 0 -- -- 73
2020-10-27 08:00:00 3.9 21 Oeste 42 Oeste 0 -- -- 74
2020-10-27 07:00:00 4 23 Oeste 50 Noroeste 0 -- -- 74
2020-10-27 06:00:00 4.1 28 Oeste 52 Oeste 0 -- -- 72
2020-10-27 05:00:00 4.3 33 Oeste 67 Oeste 0 -- -- 72
2020-10-27 04:00:00 4.4 40 Oeste 69 Oeste 0 -- -- 71
2020-10-27 03:00:00 4.4 39 Oeste 59 Oeste 0 -- -- 71
2020-10-27 02:00:00 4.2 27 Oeste 51 Oeste 0 -- -- 71
2020-10-27 01:00:00 4.6 26 Oeste 57 Noroeste 0 -- -- 69
2020-10-27 00:00:00 4.6 27 Oeste 72 Oeste 0 -- -- 70